No1 Tokuyama — JK5318 — position and weather

sailwx.info

Track history (hours):
 
Tides and Currents Weather Stations Pressure Air Temp Water Temp Dewpoint Dewpoint Depression Visibility Wind Speed Wind Dir Waves Ship Positions

No1 Tokuyama

Last reported at 2017-Apr-25 20:00 UTC. Time now 2017-Apr-25 20:28 UTC.
Position N 35°24' E 139°45'.

Length 110 m; draft 7.2 m.

Type: Cargo ship. MMSI: 431400487.

Date/timePositionNaut miles runAvg speedWind from/ knotsBaromVisibWave heightAir tempDewpointWater temp
2017-Apr-25 20:00N 35°24' E 139°45'0 0.0
2017-Apr-25 19:30N 35°24' E 139°45'0 0.0
2017-Apr-25 19:00N 35°24' E 139°45'0 0.0
2017-Apr-25 18:30N 35°24' E 139°45'0 0.0
2017-Apr-25 18:00N 35°24' E 139°45'0 0.0
2017-Apr-25 17:30N 35°24' E 139°45'0 0.0
2017-Apr-25 17:00N 35°24' E 139°45'0 0.0
2017-Apr-25 16:30N 35°24' E 139°45'0 0.1
2017-Apr-25 16:00N 35°24' E 139°45'0 0.0
2017-Apr-25 15:30N 35°24' E 139°45'0 0.0
2017-Apr-25 14:57N 35°24' E 139°45'0 0.0
2017-Apr-25 14:30N 35°24' E 139°45'0 0.0
2017-Apr-25 13:30N 35°24' E 139°45'0 0.1
2017-Apr-25 13:00N 35°24' E 139°45'2 3.0
2017-Apr-25 12:30N 35°22' E 139°44'510.6
2017-Apr-25 12:00N 35°17' E 139°45'611.5
2017-Apr-25 11:30N 35°11' E 139°47'612.7
2017-Apr-25 11:00N 35°06' E 139°43'612.9
2017-Apr-25 10:30N 35°01' E 139°38'613.0
2017-Apr-25 10:00N 34°57' E 139°31'  
2017-Apr-18 05:43N 34°33' E 134°47'314.1
2017-Apr-18 05:30N 34°34' E 134°50'713.9
2017-Apr-18 05:00N 34°37' E 134°58'713.1
2017-Apr-18 04:30N 34°36' E 135°06'713.4
2017-Apr-18 04:00N 34°36' E 135°14'510.7
2017-Apr-18 03:30N 34°40' E 135°18'2 4.5
2017-Apr-18 03:00N 34°42' E 135°17'0 0.0
2017-Apr-18 02:23N 34°42' E 135°17'0 0.0
2017-Apr-18 01:59N 34°42' E 135°17'0 0.0
2017-Apr-18 01:23N 34°42' E 135°17'0 0.0
2017-Apr-18 00:59N 34°42' E 135°17'0 0.0
2017-Apr-18 00:29N 34°42' E 135°17'0 0.0
2017-Apr-17 23:59N 34°42' E 135°17'0 0.0
2017-Apr-17 23:29N 34°42' E 135°17'0 0.0
2017-Apr-17 22:59N 34°42' E 135°17'0 0.0
2017-Apr-17 21:41N 34°42' E 135°17'0 0.0
2017-Apr-17 21:29N 34°42' E 135°17'0 0.0
2017-Apr-17 20:59N 34°42' E 135°17'0 0.0
2017-Apr-17 20:29N 34°42' E 135°17'0 0.0
2017-Apr-17 19:59N 34°42' E 135°17'0 0.0
2017-Apr-17 19:29N 34°42' E 135°17'0 0.0
2017-Apr-17 18:53N 34°42' E 135°17'0 0.0
2017-Apr-17 18:29N 34°42' E 135°17'0 0.0
2017-Apr-17 17:35N 34°42' E 135°17'0 0.0
2017-Apr-17 17:23N 34°42' E 135°17'0 0.0
2017-Apr-17 16:59N 34°42' E 135°17'0 0.0
2017-Apr-17 16:29N 34°42' E 135°17'0 0.0
2017-Apr-17 15:59N 34°42' E 135°17'0 0.0
2017-Apr-17 15:23N 34°42' E 135°17'0 0.0
2017-Apr-17 14:53N 34°42' E 135°17'0 0.0
2017-Apr-17 13:47N 34°42' E 135°17'0 0.0
2017-Apr-17 13:29N 34°42' E 135°17'0 0.0
2017-Apr-17 12:59N 34°42' E 135°17'0 0.0
2017-Apr-17 12:29N 34°42' E 135°17'0 0.0
2017-Apr-17 11:53N 34°42' E 135°17'0 0.0
2017-Apr-17 11:29N 34°42' E 135°17'0 0.0
2017-Apr-17 10:59N 34°42' E 135°17'0 0.0
2017-Apr-17 10:17N 34°42' E 135°17'0 0.0
2017-Apr-17 09:59N 34°42' E 135°17'0 0.0
2017-Apr-17 09:29N 34°42' E 135°17'0 0.0
2017-Apr-17 08:53N 34°42' E 135°17'0 0.0
2017-Apr-17 08:17N 34°42' E 135°17'0 0.0
2017-Apr-17 07:53N 34°42' E 135°17'0 0.0
2017-Apr-17 07:11N 34°42' E 135°17'0 0.0
2017-Apr-17 06:53N 34°42' E 135°17'0 0.0
2017-Apr-17 06:29N 34°42' E 135°17'0 0.0
2017-Apr-17 05:59N 34°42' E 135°17'0 0.0
2017-Apr-17 05:29N 34°42' E 135°17'0 0.9
2017-Apr-17 05:00N 34°42' E 135°17'5 9.5
2017-Apr-17 04:31N 34°38' E 135°19'510.2
2017-Apr-17 03:59N 34°39' E 135°26'1 1.2
2017-Apr-17 03:19N 34°39' E 135°27'0 0.0
2017-Apr-17 02:55N 34°39' E 135°27'0 0.0
2017-Apr-17 02:19N 34°39' E 135°27'0 0.0
2017-Apr-17 01:55N 34°39' E 135°27'0 0.0
2017-Apr-17 01:25N 34°39' E 135°27'0 0.0
2017-Apr-17 00:55N 34°39' E 135°27'0 0.0
2017-Apr-17 00:25N 34°39' E 135°27'0 0.0
2017-Apr-16 23:37N 34°39' E 135°27'0 0.0
2017-Apr-16 23:19N 34°39' E 135°27'0 0.0
2017-Apr-16 22:55N 34°39' E 135°27'0 0.2
2017-Apr-16 22:30N 34°39' E 135°27'3 5.2
2017-Apr-16 22:00N 34°38' E 135°23'4 8.5
2017-Apr-16 21:30N 34°36' E 135°19'2 4.7
2017-Apr-16 20:59N 34°38' E 135°20'0 0.0
2017-Apr-16 20:23N 34°38' E 135°20'0 0.0
2017-Apr-16 19:59N 34°38' E 135°20'0 0.0
2017-Apr-16 19:29N 34°38' E 135°20'0 0.0
2017-Apr-16 18:59N 34°38' E 135°20'0 0.0
2017-Apr-16 18:29N 34°38' E 135°20'0 0.0
2017-Apr-16 17:59N 34°38' E 135°20'0 0.0
2017-Apr-16 17:29N 34°38' E 135°20'0 0.0
2017-Apr-16 16:59N 34°38' E 135°20'0 0.0
2017-Apr-16 16:29N 34°38' E 135°20'0 0.0
2017-Apr-16 15:59N 34°38' E 135°20'0 0.1
2017-Apr-16 15:11N 34°38' E 135°20'0 0.0
2017-Apr-16 14:59N 34°38' E 135°20'0 0.0
2017-Apr-16 14:29N 34°38' E 135°20'0 0.0
2017-Apr-16 13:29N 34°38' E 135°20'0 0.0
2017-Apr-16 12:59N 34°38' E 135°20'0 0.1
2017-Apr-16 12:30N 34°38' E 135°20'4 8.2
2017-Apr-16 12:00N 34°36' E 135°16'612.4
2017-Apr-16 11:30N 34°35' E 135°08'612.1
2017-Apr-16 11:00N 34°37' E 135°02'612.5
2017-Apr-16 10:30N 34°35' E 134°54'  
Track history (hours):
 
Tides and Currents Weather Stations Pressure Air Temp Water Temp Dewpoint Dewpoint Depression Visibility Wind Speed Wind Dir Waves Ship Positions

No1 Tokuyama

Last reported at 2017-Apr-25 20:00 UTC. Time now 2017-Apr-25 20:28 UTC.
Position N 35°24' E 139°45'.

Length 110 m; draft 7.2 m.

Type: Cargo ship. MMSI: 431400487.

Date/timePositionNaut miles runAvg speedWind from/ knotsBaromVisibWave heightAir tempDewpointWater temp
2017-Apr-25 20:00N 35°24' E 139°45'0 0.0
2017-Apr-25 19:30N 35°24' E 139°45'0 0.0
2017-Apr-25 19:00N 35°24' E 139°45'0 0.0
2017-Apr-25 18:30N 35°24' E 139°45'0 0.0
2017-Apr-25 18:00N 35°24' E 139°45'0 0.0
2017-Apr-25 17:30N 35°24' E 139°45'0 0.0
2017-Apr-25 17:00N 35°24' E 139°45'0 0.0
2017-Apr-25 16:30N 35°24' E 139°45'0 0.1
2017-Apr-25 16:00N 35°24' E 139°45'0 0.0
2017-Apr-25 15:30N 35°24' E 139°45'0 0.0
2017-Apr-25 14:57N 35°24' E 139°45'0 0.0
2017-Apr-25 14:30N 35°24' E 139°45'0 0.0
2017-Apr-25 13:30N 35°24' E 139°45'0 0.1
2017-Apr-25 13:00N 35°24' E 139°45'2 3.0
2017-Apr-25 12:30N 35°22' E 139°44'510.6
2017-Apr-25 12:00N 35°17' E 139°45'611.5
2017-Apr-25 11:30N 35°11' E 139°47'612.7
2017-Apr-25 11:00N 35°06' E 139°43'612.9
2017-Apr-25 10:30N 35°01' E 139°38'613.0
2017-Apr-25 10:00N 34°57' E 139°31'  
2017-Apr-18 05:43N 34°33' E 134°47'314.1
2017-Apr-18 05:30N 34°34' E 134°50'713.9
2017-Apr-18 05:00N 34°37' E 134°58'713.1
2017-Apr-18 04:30N 34°36' E 135°06'713.4
2017-Apr-18 04:00N 34°36' E 135°14'510.7
2017-Apr-18 03:30N 34°40' E 135°18'2 4.5
2017-Apr-18 03:00N 34°42' E 135°17'0 0.0
2017-Apr-18 02:23N 34°42' E 135°17'0 0.0
2017-Apr-18 01:59N 34°42' E 135°17'0 0.0
2017-Apr-18 01:23N 34°42' E 135°17'0 0.0
2017-Apr-18 00:59N 34°42' E 135°17'0 0.0
2017-Apr-18 00:29N 34°42' E 135°17'0 0.0
2017-Apr-17 23:59N 34°42' E 135°17'0 0.0
2017-Apr-17 23:29N 34°42' E 135°17'0 0.0
2017-Apr-17 22:59N 34°42' E 135°17'0 0.0
2017-Apr-17 21:41N 34°42' E 135°17'0 0.0
2017-Apr-17 21:29N 34°42' E 135°17'0 0.0
2017-Apr-17 20:59N 34°42' E 135°17'0 0.0
2017-Apr-17 20:29N 34°42' E 135°17'0 0.0
2017-Apr-17 19:59N 34°42' E 135°17'0 0.0
2017-Apr-17 19:29N 34°42' E 135°17'0 0.0
2017-Apr-17 18:53N 34°42' E 135°17'0 0.0
2017-Apr-17 18:29N 34°42' E 135°17'0 0.0
2017-Apr-17 17:35N 34°42' E 135°17'0 0.0
2017-Apr-17 17:23N 34°42' E 135°17'0 0.0
2017-Apr-17 16:59N 34°42' E 135°17'0 0.0
2017-Apr-17 16:29N 34°42' E 135°17'0 0.0
2017-Apr-17 15:59N 34°42' E 135°17'0 0.0
2017-Apr-17 15:23N 34°42' E 135°17'0 0.0
2017-Apr-17 14:53N 34°42' E 135°17'0 0.0
2017-Apr-17 13:47N 34°42' E 135°17'0 0.0
2017-Apr-17 13:29N 34°42' E 135°17'0 0.0
2017-Apr-17 12:59N 34°42' E 135°17'0 0.0
2017-Apr-17 12:29N 34°42' E 135°17'0 0.0
2017-Apr-17 11:53N 34°42' E 135°17'0 0.0
2017-Apr-17 11:29N 34°42' E 135°17'0 0.0
2017-Apr-17 10:59N 34°42' E 135°17'0 0.0
2017-Apr-17 10:17N 34°42' E 135°17'0 0.0
2017-Apr-17 09:59N 34°42' E 135°17'0 0.0
2017-Apr-17 09:29N 34°42' E 135°17'0 0.0
2017-Apr-17 08:53N 34°42' E 135°17'0 0.0
2017-Apr-17 08:17N 34°42' E 135°17'0 0.0
2017-Apr-17 07:53N 34°42' E 135°17'0 0.0
2017-Apr-17 07:11N 34°42' E 135°17'0 0.0
2017-Apr-17 06:53N 34°42' E 135°17'0 0.0
2017-Apr-17 06:29N 34°42' E 135°17'0 0.0
2017-Apr-17 05:59N 34°42' E 135°17'0 0.0
2017-Apr-17 05:29N 34°42' E 135°17'0 0.9
2017-Apr-17 05:00N 34°42' E 135°17'5 9.5
2017-Apr-17 04:31N 34°38' E 135°19'510.2
2017-Apr-17 03:59N 34°39' E 135°26'1 1.2
2017-Apr-17 03:19N 34°39' E 135°27'0 0.0
2017-Apr-17 02:55N 34°39' E 135°27'0 0.0
2017-Apr-17 02:19N 34°39' E 135°27'0 0.0
2017-Apr-17 01:55N 34°39' E 135°27'0 0.0
2017-Apr-17 01:25N 34°39' E 135°27'0 0.0
2017-Apr-17 00:55N 34°39' E 135°27'0 0.0
2017-Apr-17 00:25N 34°39' E 135°27'0 0.0
2017-Apr-16 23:37N 34°39' E 135°27'0 0.0
2017-Apr-16 23:19N 34°39' E 135°27'0 0.0
2017-Apr-16 22:55N 34°39' E 135°27'0 0.2
2017-Apr-16 22:30N 34°39' E 135°27'3 5.2
2017-Apr-16 22:00N 34°38' E 135°23'4 8.5
2017-Apr-16 21:30N 34°36' E 135°19'2 4.7
2017-Apr-16 20:59N 34°38' E 135°20'0 0.0
2017-Apr-16 20:23N 34°38' E 135°20'0 0.0
2017-Apr-16 19:59N 34°38' E 135°20'0 0.0
2017-Apr-16 19:29N 34°38' E 135°20'0 0.0
2017-Apr-16 18:59N 34°38' E 135°20'0 0.0
2017-Apr-16 18:29N 34°38' E 135°20'0 0.0
2017-Apr-16 17:59N 34°38' E 135°20'0 0.0
2017-Apr-16 17:29N 34°38' E 135°20'0 0.0
2017-Apr-16 16:59N 34°38' E 135°20'0 0.0
2017-Apr-16 16:29N 34°38' E 135°20'0 0.0
2017-Apr-16 15:59N 34°38' E 135°20'0 0.1
2017-Apr-16 15:11N 34°38' E 135°20'0 0.0
2017-Apr-16 14:59N 34°38' E 135°20'0 0.0
2017-Apr-16 14:29N 34°38' E 135°20'0 0.0
2017-Apr-16 13:29N 34°38' E 135°20'0 0.0
2017-Apr-16 12:59N 34°38' E 135°20'0 0.1
2017-Apr-16 12:30N 34°38' E 135°20'4 8.2
2017-Apr-16 12:00N 34°36' E 135°16'612.4
2017-Apr-16 11:30N 34°35' E 135°08'612.1
2017-Apr-16 11:00N 34°37' E 135°02'612.5
2017-Apr-16 10:30N 34°35' E 134°54'  

Dump ship's entire track history